Terminal Aerodrome Forecast
Issued by NWS Omaha/Valley, NE

Home | Current Version | Previous Version | Graphics & Text | Print | Product List | Glossary On
Versions: 1 2 3 4 5 6 7 8 9 10 11 12 13
000
FTUS43 KOAX 300520
TAFOFK
TAF
KOFK 300520Z 3006/3106 VRB04KT P6SM BKN100
     FM300900 32008KT P6SM SCT100
     FM301500 33016G28KT P6SM SCT250
     FM310100 35011KT P6SM SKC=

USA.gov is the U.S. government's official web portal to all federal, state and local government web resources and services.